Tianjin Binhai International Airport
ZBTJ : now visible

Airfield :











YOU CAN JOIN US ON...

 
LOGIN :

Register | Disclaimer

   EN    FR    IT 

 









Legend :    VFR   Marginal VFR   IFR   Intensive IFR   Very Intensive IFR
Visi :
Ceiling :
>= 8 km
>= 3000ft
5 to 8 km
1000 to 3000 ft
1500m to 5 km
500 to 1000 ft
800 to 1500m
200 to 500 ft
< 800m
< 200 ft
Symbols :   Thunderstorms  Fog  Heavy snow  Heavy precipitations  Wind > 20 kt






- Airport Elevation : 10 ft
- IATA code : TSN


ZBTJ - Tianjin Binhai International

CURRENT METAR :
  • 250800Z 29002MPS 250V310 6000 NSC 05/M08 Q1031 NOSIG

EXPIRED METARs :
  • 250730Z 29002MPS 240V360 7000 NSC 06/M08 Q1032 NOSIG
  • 250700Z 33002MPS 300V030 7000 NSC 05/M08 Q1032 NOSIG
  • 250630Z 27002MPS 230V310 7000 NSC 05/M08 Q1032 NOSIG
  • 250600Z 27002MPS 220V350 7000 NSC 05/M07 Q1032 NOSIG
  • 250530Z VRB01MPS 7000 NSC 05/M07 Q1033 NOSIG

TAF TAF ZBTJ
Valid from the 25 at 06:00 until the 26 at 06:00 UTC


250259Z 2506/2606 10003MPS 3000 BR NSC TX05/2507Z TNM05/2522Z



MET'MAP, your aeronautical weather chart ! - Copyright ORBIFLY December 2007 - Disclaimer

ORBIFLY MET'MAP TEAM :

Programming & Development : Alexandra Zaïnal
Concept & original design : Baudouin d'Aumeries
Assistance for programming : Marc-Olivier Méhu
Technical & hardware support : Manuel Goepfert

Contact : metmap@orbifly.com




SOURCES & CREDITS :

   NOAA       Earth
Advisory